createdAt,value
2018-12-12T00:02:18.223Z,58.15
2018-12-12T00:04:47.128Z,58.01
2018-12-12T00:07:15.975Z,57.86
2018-12-12T00:09:44.835Z,57.50
2018-12-12T00:12:13.680Z,57.19
2018-12-12T00:14:42.581Z,57.25
2018-12-12T00:17:11.427Z,57.64
2018-12-12T00:19:40.331Z,56.99
2018-12-12T00:22:09.193Z,57.12
2018-12-12T00:24:38.073Z,57.27
2018-12-12T00:27:06.964Z,56.71
2018-12-12T00:29:35.896Z,56.77
2018-12-12T00:32:04.768Z,56.99
2018-12-12T00:34:33.686Z,56.77
2018-12-12T00:37:02.711Z,57.02
2018-12-12T00:39:31.599Z,57.33
2018-12-12T00:42:00.473Z,56.95
2018-12-12T00:44:29.365Z,57.61
2018-12-12T00:46:58.675Z,57.52
2018-12-12T00:49:27.565Z,56.79
2018-12-12T00:51:56.748Z,57.12
2018-12-12T00:54:26.111Z,57.05
2018-12-12T00:56:55.030Z,55.49
2018-12-12T00:59:23.991Z,56.74
2018-12-12T01:01:52.856Z,57.89
2018-12-12T01:04:21.720Z,55.92
2018-12-12T01:06:50.616Z,56.67
2018-12-12T01:09:19.543Z,57.90
2018-12-12T01:11:53.809Z,57.07
2018-12-12T01:14:22.678Z,57.07
2018-12-12T01:16:51.554Z,56.92
2018-12-12T01:19:20.453Z,56.08
2018-12-12T01:21:49.366Z,57.74
2018-12-12T01:24:18.265Z,56.87
2018-12-12T01:26:47.156Z,56.59
2018-12-12T01:29:16.077Z,56.63
2018-12-12T01:31:45.250Z,57.39
2018-12-12T01:34:14.138Z,57.11
2018-12-12T01:36:43.041Z,57.69
2018-12-12T01:39:11.959Z,57.32
2018-12-12T01:41:41.251Z,56.69
2018-12-12T01:44:10.149Z,57.44
2018-12-12T01:46:39.024Z,58.00
2018-12-12T01:49:08.463Z,57.89
2018-12-12T01:51:37.306Z,57.31
2018-12-12T01:54:06.196Z,58.15
2018-12-12T01:56:35.109Z,58.11
2018-12-12T01:59:04.516Z,58.17
2018-12-12T02:01:33.429Z,57.75
2018-12-12T02:04:02.299Z,57.59
2018-12-12T02:06:31.187Z,56.96
2018-12-12T02:09:00.079Z,56.74
2018-12-12T02:11:29.051Z,57.83
2018-12-12T02:13:57.941Z,57.32
2018-12-12T02:16:26.827Z,57.21
2018-12-12T02:18:56.239Z,57.09
2018-12-12T02:21:25.229Z,57.08
2018-12-12T02:23:54.326Z,57.20
2018-12-12T02:26:23.238Z,58.41
2018-12-12T02:28:52.137Z,58.15
2018-12-12T02:31:21.001Z,57.45
2018-12-12T02:33:49.894Z,57.50
2018-12-12T02:36:19.068Z,58.21
2018-12-12T02:38:47.952Z,56.24
2018-12-12T02:41:16.868Z,57.58
2018-12-12T02:43:45.756Z,57.30
2018-12-12T02:46:14.640Z,57.76
2018-12-12T02:48:43.952Z,56.96
2018-12-12T02:51:12.836Z,56.75
2018-12-12T02:53:41.725Z,57.53
2018-12-12T02:56:10.922Z,56.25
2018-12-12T02:58:39.806Z,56.67
2018-12-12T03:01:08.703Z,57.13
2018-12-12T03:03:37.588Z,56.27
2018-12-12T03:06:06.483Z,57.36
2018-12-12T03:08:35.379Z,56.81
2018-12-12T03:11:04.264Z,56.90
2018-12-12T03:13:33.587Z,57.54
2018-12-12T03:16:02.807Z,56.34
2018-12-12T03:18:31.818Z,57.22
2018-12-12T03:21:00.713Z,57.22
2018-12-12T03:23:29.563Z,57.80
2018-12-12T03:25:58.910Z,56.94
2018-12-12T03:28:27.796Z,57.01
2018-12-12T03:30:56.691Z,57.85
2018-12-12T03:33:25.878Z,56.89
2018-12-12T03:35:54.819Z,56.24
2018-12-12T03:38:23.706Z,55.91
2018-12-12T03:40:53.019Z,57.98
2018-12-12T03:43:21.894Z,58.08
2018-12-12T03:45:50.771Z,56.61
2018-12-12T03:48:21.788Z,57.84
2018-12-12T03:50:51.007Z,56.26
2018-12-12T03:53:19.861Z,57.49
2018-12-12T03:55:48.999Z,57.50
2018-12-12T03:58:18.655Z,57.19
2018-12-12T04:00:47.496Z,57.81
2018-12-12T04:03:16.352Z,57.06
2018-12-12T04:05:46.022Z,57.52
2018-12-12T04:08:14.880Z,57.84
2018-12-12T04:10:43.767Z,57.64
2018-12-12T04:13:12.794Z,57.99
2018-12-12T04:15:41.680Z,57.69
2018-12-12T04:18:10.527Z,57.92
2018-12-12T04:20:39.365Z,57.46
2018-12-12T04:23:08.459Z,58.35
2018-12-12T04:25:37.710Z,58.48
2018-12-12T04:28:06.544Z,58.48
2018-12-12T04:30:35.386Z,58.35
2018-12-12T04:33:04.635Z,58.12
2018-12-12T04:35:33.448Z,57.54
2018-12-12T04:38:02.300Z,57.22
2018-12-12T04:40:31.451Z,57.85
2018-12-12T04:43:00.304Z,57.96
2018-12-12T04:45:29.133Z,58.36
2018-12-12T04:47:58.300Z,58.17
2018-12-12T04:50:27.384Z,57.43
2018-12-12T04:52:56.383Z,58.13
2018-12-12T04:55:25.267Z,57.64
2018-12-12T04:57:54.607Z,57.42
2018-12-12T05:00:23.462Z,58.24
2018-12-12T05:02:52.931Z,58.04
2018-12-12T05:05:21.866Z,57.17
2018-12-12T05:07:50.927Z,56.97
2018-12-12T05:10:19.774Z,57.91
2018-12-12T05:12:48.616Z,57.21
2018-12-12T05:15:17.454Z,57.97
2018-12-12T05:17:46.310Z,57.65
2018-12-12T05:20:15.391Z,57.87
2018-12-12T05:22:44.228Z,58.15
2018-12-12T05:25:13.084Z,58.54
2018-12-12T05:27:41.901Z,58.74
2018-12-12T05:30:10.752Z,58.48
2018-12-12T05:32:39.580Z,57.17
2018-12-12T05:35:08.731Z,57.49
2018-12-12T05:37:37.570Z,57.85
2018-12-12T05:40:07.544Z,57.20
2018-12-12T05:42:36.630Z,57.77
2018-12-12T05:45:06.592Z,58.25
2018-12-12T05:47:35.416Z,58.20
2018-12-12T05:50:04.871Z,57.98
2018-12-12T05:52:33.753Z,57.86
2018-12-12T05:55:02.835Z,58.40
2018-12-12T05:57:31.664Z,57.60
2018-12-12T06:00:00.543Z,58.25
2018-12-12T06:02:29.454Z,57.63
2018-12-12T06:04:58.316Z,56.65
2018-12-12T06:07:27.193Z,57.94
2018-12-12T06:09:56.263Z,57.97
2018-12-12T06:12:25.130Z,57.41
2018-12-12T06:14:54.235Z,57.02
2018-12-12T06:17:23.163Z,57.63
2018-12-12T06:19:52.499Z,58.03
2018-12-12T06:22:21.839Z,57.90
2018-12-12T06:24:51.094Z,57.70
2018-12-12T06:27:19.979Z,57.41
2018-12-12T06:29:48.841Z,57.36
2018-12-12T06:32:17.719Z,57.86
2018-12-12T06:34:46.655Z,57.39
2018-12-12T06:37:15.608Z,58.19
2018-12-12T06:39:44.559Z,57.20
2018-12-12T06:42:13.443Z,57.43
2018-12-12T06:44:42.388Z,57.14
2018-12-12T06:47:11.327Z,57.38
2018-12-12T06:49:40.234Z,58.14
2018-12-12T06:52:09.819Z,57.53
2018-12-12T06:54:38.757Z,58.24
2018-12-12T06:57:08.276Z,58.01
2018-12-12T06:59:37.274Z,57.36
2018-12-12T07:02:06.612Z,57.47
2018-12-12T07:04:35.507Z,57.08
2018-12-12T07:07:06.054Z,56.82
2018-12-12T07:09:34.892Z,57.17
2018-12-12T07:12:03.984Z,57.86
2018-12-12T07:14:32.768Z,57.35
2018-12-12T07:17:01.663Z,57.45
2018-12-12T07:19:31.169Z,57.96
2018-12-12T07:22:00.221Z,57.98
2018-12-12T07:24:29.285Z,57.71
2018-12-12T07:26:58.148Z,58.12
2018-12-12T07:29:27.378Z,57.22
2018-12-12T07:31:56.643Z,58.05
2018-12-12T07:34:25.496Z,57.30
2018-12-12T07:36:54.327Z,57.04
2018-12-12T07:39:23.197Z,56.72
2018-12-12T07:41:52.041Z,57.12
2018-12-12T07:44:21.303Z,57.08
2018-12-12T07:46:50.550Z,58.00
2018-12-12T07:49:19.854Z,57.92
2018-12-12T07:51:48.692Z,57.31
2018-12-12T07:54:17.531Z,58.03
2018-12-12T07:56:46.390Z,57.61
2018-12-12T07:59:15.215Z,58.19
2018-12-12T08:01:44.098Z,57.47
2018-12-12T08:04:13.059Z,57.52
2018-12-12T08:06:41.966Z,57.17
2018-12-12T08:09:11.257Z,57.01
2018-12-12T08:11:40.159Z,57.38
2018-12-12T08:14:09.049Z,57.79
2018-12-12T08:16:37.957Z,57.83
2018-12-12T08:19:06.813Z,57.70
2018-12-12T08:21:35.643Z,57.54
2018-12-12T08:24:04.867Z,58.13
2018-12-12T08:26:33.826Z,58.13
2018-12-12T08:29:03.189Z,57.37
2018-12-12T08:31:32.168Z,58.24
2018-12-12T08:34:01.083Z,57.46
2018-12-12T08:36:37.105Z,57.44
2018-12-12T08:39:07.869Z,57.55
2018-12-12T08:41:36.737Z,57.13
2018-12-12T08:44:05.991Z,56.83
2018-12-12T08:46:35.130Z,58.41
2018-12-12T08:49:04.355Z,58.23
2018-12-12T08:51:33.179Z,57.45
2018-12-12T08:54:02.523Z,57.95
2018-12-12T08:56:31.495Z,57.45
2018-12-12T08:59:00.368Z,57.92
2018-12-12T09:01:30.215Z,57.71
2018-12-12T09:03:59.091Z,57.83
2018-12-12T09:07:05.204Z,56.98
2018-12-12T09:09:34.071Z,57.33
2018-12-12T09:12:03.114Z,57.86
2018-12-12T09:14:32.016Z,57.01
2018-12-12T09:17:00.923Z,57.19
2018-12-12T09:19:29.823Z,57.10
2018-12-12T09:21:58.951Z,56.68
2018-12-12T09:24:27.864Z,56.64
2018-12-12T09:26:56.780Z,56.27
2018-12-12T09:29:25.698Z,56.24
2018-12-12T09:31:55.049Z,56.10
2018-12-12T09:34:24.046Z,55.98
2018-12-12T09:36:52.909Z,56.62
2018-12-12T09:39:21.805Z,56.61
2018-12-12T09:41:50.729Z,56.70
2018-12-12T09:44:19.859Z,56.13
2018-12-12T09:46:48.731Z,57.14
2018-12-12T09:49:17.548Z,56.97
2018-12-12T09:51:46.367Z,57.20
2018-12-12T09:54:15.226Z,57.42
2018-12-12T09:56:44.139Z,57.65
2018-12-12T09:59:12.967Z,57.81
2018-12-12T10:01:41.780Z,58.10
2018-12-12T10:04:10.843Z,57.83
2018-12-12T10:06:39.647Z,57.66
2018-12-12T10:09:08.591Z,56.97
2018-12-12T10:11:37.639Z,57.57
2018-12-12T10:14:06.510Z,57.25
2018-12-12T10:16:35.414Z,56.35
2018-12-12T10:19:04.246Z,56.88
2018-12-12T10:21:33.163Z,56.93
2018-12-12T10:24:02.005Z,56.24
2018-12-12T10:26:30.879Z,56.08
2018-12-12T10:29:00.138Z,56.16
2018-12-12T10:31:29.605Z,55.60
2018-12-12T10:33:58.480Z,55.94
2018-12-12T10:36:27.299Z,55.84
2018-12-12T10:38:56.135Z,56.68
2018-12-12T10:41:25.234Z,56.27
2018-12-12T10:43:54.415Z,56.70
2018-12-12T10:46:23.225Z,56.05
2018-12-12T10:48:52.126Z,56.49
2018-12-12T10:51:20.985Z,55.59
2018-12-12T10:53:49.822Z,55.96
2018-12-12T10:56:18.683Z,55.52
2018-12-12T10:58:47.547Z,55.48
2018-12-12T11:01:21.635Z,56.45
2018-12-12T11:03:50.505Z,55.61
2018-12-12T11:06:19.401Z,55.69
2018-12-12T11:08:48.271Z,55.64
2018-12-12T11:11:17.165Z,55.94
2018-12-12T11:13:46.852Z,55.94
2018-12-12T11:16:15.928Z,55.76
2018-12-12T11:18:44.820Z,56.30
2018-12-12T11:21:14.146Z,56.27
2018-12-12T11:23:43.037Z,56.09
2018-12-12T11:26:11.939Z,56.17
2018-12-12T11:28:40.789Z,55.29
2018-12-12T11:31:09.668Z,55.59
2018-12-12T11:33:38.478Z,55.91
2018-12-12T11:36:07.355Z,55.23
2018-12-12T11:38:36.255Z,55.93
2018-12-12T11:41:05.558Z,55.62
2018-12-12T11:43:34.467Z,56.00
2018-12-12T11:46:03.347Z,55.43
2018-12-12T11:48:32.271Z,55.70
2018-12-12T11:51:01.204Z,56.54
2018-12-12T11:53:30.120Z,55.50
2018-12-12T11:55:59.083Z,55.83
2018-12-12T11:58:27.960Z,56.02
2018-12-12T12:00:56.912Z,55.98
2018-12-12T12:03:26.011Z,55.96
2018-12-12T12:05:54.827Z,55.91
2018-12-12T12:08:24.195Z,56.11
2018-12-12T12:10:53.104Z,55.45
2018-12-12T12:13:22.259Z,55.18
2018-12-12T12:15:51.736Z,56.19
2018-12-12T12:18:20.624Z,56.12
2018-12-12T12:20:49.510Z,55.98
2018-12-12T12:23:18.415Z,55.46
2018-12-12T12:25:47.402Z,55.97
2018-12-12T12:28:16.259Z,55.17
2018-12-12T12:30:45.079Z,55.90
2018-12-12T12:33:13.971Z,55.10
2018-12-12T12:35:42.862Z,55.18
2018-12-12T12:38:11.836Z,55.33
2018-12-12T12:40:40.937Z,55.82
2018-12-12T12:43:10.099Z,55.03
2018-12-12T12:45:39.316Z,55.78
2018-12-12T12:48:08.540Z,55.50
2018-12-12T12:50:37.451Z,55.27
2018-12-12T12:53:06.310Z,55.02
2018-12-12T12:55:35.174Z,55.42
2018-12-12T12:58:04.282Z,54.79
2018-12-12T13:00:33.078Z,55.55
2018-12-12T13:03:01.904Z,55.18
2018-12-12T13:05:31.239Z,54.75
2018-12-12T13:08:00.049Z,55.16
2018-12-12T13:10:29.346Z,55.18
2018-12-12T13:12:58.538Z,55.63
2018-12-12T13:15:28.156Z,54.98
2018-12-12T13:17:56.995Z,55.89
2018-12-12T13:20:26.049Z,55.81
2018-12-12T13:22:54.897Z,55.47
2018-12-12T13:25:23.722Z,55.51
2018-12-12T13:27:52.545Z,55.74
2018-12-12T13:30:21.321Z,55.15
2018-12-12T13:32:50.131Z,55.20
2018-12-12T13:35:19.347Z,54.90
2018-12-12T13:37:48.205Z,55.22
2018-12-12T13:40:16.989Z,55.17
2018-12-12T13:42:45.786Z,55.82
2018-12-12T13:45:14.607Z,55.52
2018-12-12T13:47:43.813Z,54.82
2018-12-12T13:50:12.903Z,54.87
2018-12-12T13:52:41.703Z,55.42
2018-12-12T13:55:10.805Z,55.88
2018-12-12T13:57:39.590Z,55.65
2018-12-12T14:00:09.126Z,55.91
2018-12-12T14:02:37.912Z,55.31
2018-12-12T14:05:07.260Z,55.03
2018-12-12T14:07:36.093Z,55.67
2018-12-12T14:10:05.715Z,54.92
2018-12-12T14:12:34.751Z,55.85
2018-12-12T14:15:04.449Z,55.54
2018-12-12T14:17:33.296Z,55.99
2018-12-12T14:20:02.137Z,55.34
2018-12-12T14:22:30.979Z,55.45
2018-12-12T14:25:00.299Z,55.72
2018-12-12T14:27:29.159Z,55.11
2018-12-12T14:29:58.364Z,55.43
2018-12-12T14:32:27.310Z,55.66
2018-12-12T14:34:56.181Z,55.74
2018-12-12T14:37:25.021Z,55.59
2018-12-12T14:39:53.823Z,55.21
2018-12-12T14:42:22.641Z,54.49
2018-12-12T14:44:51.464Z,55.21
2018-12-12T14:47:20.240Z,55.77
2018-12-12T14:49:49.300Z,55.65
2018-12-12T14:52:18.362Z,54.77
2018-12-12T14:54:47.176Z,55.45
2018-12-12T14:57:15.983Z,54.99
2018-12-12T14:59:45.030Z,55.35
2018-12-12T15:02:13.979Z,55.01
2018-12-12T15:04:42.779Z,54.51
2018-12-12T15:07:11.541Z,55.32
2018-12-12T15:09:40.429Z,54.52
2018-12-12T15:12:09.313Z,54.47
2018-12-12T15:14:38.137Z,55.63
2018-12-12T15:17:06.996Z,54.71
2018-12-12T15:19:35.794Z,55.15
2018-12-12T15:22:05.409Z,55.97
2018-12-12T15:24:35.491Z,55.02
2018-12-12T15:27:05.078Z,55.47
2018-12-12T15:29:33.946Z,55.22
2018-12-12T15:32:03.411Z,55.32
2018-12-12T15:34:42.334Z,55.72
2018-12-12T15:37:15.072Z,55.81
2018-12-12T15:39:50.208Z,55.25
2018-12-12T15:42:23.900Z,55.04
2018-12-12T15:44:58.084Z,55.41
2018-12-12T15:47:31.208Z,55.26
2018-12-12T15:50:15.035Z,56.16
2018-12-12T15:52:43.869Z,55.69
2018-12-12T15:55:12.691Z,56.25
2018-12-12T15:57:41.490Z,56.20
2018-12-12T16:00:10.789Z,55.88
2018-12-12T16:02:40.109Z,56.22
2018-12-12T16:05:08.879Z,55.49
2018-12-12T16:07:37.711Z,55.71
2018-12-12T16:10:07.574Z,55.52
2018-12-12T16:12:36.410Z,56.13
2018-12-12T16:15:05.979Z,56.01
2018-12-12T16:17:35.137Z,56.19
2018-12-12T16:20:04.887Z,56.08
2018-12-12T16:22:33.678Z,56.21
2018-12-12T16:25:02.999Z,55.43
2018-12-12T16:27:32.215Z,56.22
2018-12-12T16:30:01.417Z,56.08
2018-12-12T16:32:30.301Z,55.65
2018-12-12T16:34:59.094Z,55.48
2018-12-12T16:37:29.672Z,56.13
2018-12-12T16:39:58.521Z,56.08
2018-12-12T16:42:28.012Z,56.21
2018-12-12T16:44:56.866Z,55.59
2018-12-12T16:47:25.676Z,56.08
2018-12-12T16:49:54.568Z,55.52
2018-12-12T16:52:23.977Z,55.80
2018-12-12T16:54:52.830Z,55.71
2018-12-12T16:57:21.616Z,55.51
2018-12-12T16:59:50.613Z,56.33
2018-12-12T17:02:19.526Z,56.42
2018-12-12T17:04:48.342Z,55.90
2018-12-12T17:07:17.772Z,55.62
2018-12-12T17:09:46.813Z,55.96
2018-12-12T17:12:15.646Z,55.82
2018-12-12T17:14:44.575Z,56.25
2018-12-12T17:17:13.378Z,55.66
2018-12-12T17:19:42.212Z,55.72
2018-12-12T17:22:11.053Z,56.64
2018-12-12T17:24:39.861Z,55.71
2018-12-12T17:27:09.152Z,56.63
2018-12-12T17:29:38.019Z,55.58
2018-12-12T17:32:07.077Z,56.53
2018-12-12T17:34:36.313Z,55.81
2018-12-12T17:37:05.563Z,56.45
2018-12-12T17:39:34.390Z,56.90
2018-12-12T17:42:03.291Z,55.79
2018-12-12T17:44:32.107Z,56.74
2018-12-12T17:47:00.915Z,56.12
2018-12-12T17:49:29.749Z,56.79
2018-12-12T17:51:58.997Z,56.80
2018-12-12T17:54:27.797Z,56.23
2018-12-12T17:56:56.601Z,56.27
2018-12-12T17:59:25.461Z,56.73
2018-12-12T18:01:54.529Z,56.50
2018-12-12T18:04:23.345Z,56.01
2018-12-12T18:06:52.170Z,56.01
2018-12-12T18:09:21.036Z,55.97
2018-12-12T18:11:49.861Z,56.74
2018-12-12T18:14:18.685Z,56.69
2018-12-12T18:16:47.874Z,56.81
2018-12-12T18:19:16.693Z,55.90
2018-12-12T18:21:45.489Z,55.90
2018-12-12T18:24:14.275Z,55.86
2018-12-12T18:26:43.803Z,56.60
2018-12-12T18:29:12.878Z,56.63
2018-12-12T18:31:41.710Z,55.81
2018-12-12T18:34:10.509Z,56.59
2018-12-12T18:36:39.309Z,56.51
2018-12-12T18:39:08.685Z,55.69
2018-12-12T18:41:37.531Z,56.81
2018-12-12T18:44:06.375Z,56.54
2018-12-12T18:46:35.242Z,56.01
2018-12-12T18:49:04.495Z,56.90
2018-12-12T18:51:33.742Z,56.01
2018-12-12T18:54:02.608Z,56.13
2018-12-12T18:56:31.407Z,56.53
2018-12-12T18:59:02.103Z,56.23
2018-12-12T19:01:31.673Z,56.91
2018-12-12T19:04:00.538Z,56.33
2018-12-12T19:06:29.367Z,56.73
2018-12-12T19:08:58.173Z,57.03
2018-12-12T19:11:26.981Z,57.19
2018-12-12T19:13:55.797Z,56.98
2018-12-12T19:16:24.633Z,56.98
2018-12-12T19:18:53.541Z,56.87
2018-12-12T19:21:22.359Z,56.64
2018-12-12T19:23:51.253Z,56.99
2018-12-12T19:26:20.037Z,56.31
2018-12-12T19:28:48.873Z,56.39
2018-12-12T19:31:17.697Z,57.09
2018-12-12T19:33:46.595Z,56.99
2018-12-12T19:36:15.418Z,56.21
2018-12-12T19:38:45.201Z,56.99
2018-12-12T19:41:14.150Z,56.34
2018-12-12T19:43:43.189Z,56.03
2018-12-12T19:46:12.169Z,56.79
2018-12-12T19:48:44.321Z,56.85
2018-12-12T19:51:13.117Z,57.02
2018-12-12T19:53:44.209Z,56.90
2018-12-12T19:56:12.969Z,56.90
2018-12-12T19:58:41.776Z,56.22
2018-12-12T20:01:10.606Z,57.05
2018-12-12T20:03:40.469Z,56.53
2018-12-12T20:06:09.652Z,56.22
2018-12-12T20:08:39.016Z,56.80
2018-12-12T20:11:08.572Z,57.01
2018-12-12T20:13:37.420Z,56.23
2018-12-12T20:16:06.605Z,56.14
2018-12-12T20:18:35.404Z,56.05
2018-12-12T20:21:04.596Z,56.17
2018-12-12T20:23:33.740Z,56.83
2018-12-12T20:26:02.538Z,55.86
2018-12-12T20:28:31.345Z,56.07
2018-12-12T20:31:00.181Z,55.98
2018-12-12T20:33:29.279Z,56.71
2018-12-12T20:35:58.044Z,55.95
2018-12-12T20:38:30.150Z,56.36
2018-12-12T20:40:59.162Z,56.86
2018-12-12T20:43:28.043Z,55.98
2018-12-12T20:45:57.037Z,56.22
2018-12-12T20:48:25.813Z,55.85
2018-12-12T20:50:55.179Z,56.56
2018-12-12T20:53:23.975Z,55.64
2018-12-12T20:55:52.806Z,56.22
2018-12-12T20:58:21.669Z,56.18
2018-12-12T21:00:50.461Z,55.84
2018-12-12T21:03:19.281Z,56.47
2018-12-12T21:05:54.337Z,56.23
2018-12-12T21:08:36.201Z,55.86
2018-12-12T21:11:05.042Z,56.34
2018-12-12T21:13:33.868Z,56.23
2018-12-12T21:16:02.665Z,56.61
2018-12-12T21:18:31.473Z,55.84
2018-12-12T21:21:00.288Z,57.05
2018-12-12T21:23:29.118Z,56.03
2018-12-12T21:25:58.397Z,56.28
2018-12-12T21:28:27.190Z,56.70
2018-12-12T21:30:56.041Z,56.58
2018-12-12T21:33:25.247Z,56.45
2018-12-12T21:35:54.034Z,55.86
2018-12-12T21:38:22.838Z,55.67
2018-12-12T21:40:52.047Z,55.97
2018-12-12T21:43:20.834Z,56.65
2018-12-12T21:45:52.656Z,56.38
2018-12-12T21:48:21.474Z,55.91
2018-12-12T21:50:50.271Z,56.41
2018-12-12T21:53:19.069Z,56.02
2018-12-12T21:55:47.882Z,56.48
2018-12-12T21:58:16.933Z,56.34
2018-12-12T22:00:45.988Z,56.41
2018-12-12T22:03:15.350Z,55.62
2018-12-12T22:05:44.871Z,56.36
2018-12-12T22:08:13.657Z,55.81
2018-12-12T22:10:42.694Z,56.64
2018-12-12T22:13:11.474Z,56.58
2018-12-12T22:15:40.282Z,55.65
2018-12-12T22:18:09.038Z,55.64
2018-12-12T22:20:37.893Z,56.16
2018-12-12T22:23:07.073Z,55.83
2018-12-12T22:25:35.884Z,55.28
2018-12-12T22:28:04.682Z,55.24
2018-12-12T22:30:33.549Z,55.31
2018-12-12T22:33:02.362Z,56.11
2018-12-12T22:35:31.174Z,55.44
2018-12-12T22:37:59.985Z,56.18
2018-12-12T22:40:28.770Z,56.41
2018-12-12T22:42:57.619Z,55.70
2018-12-12T22:45:26.422Z,55.98
2018-12-12T22:47:55.625Z,56.11
2018-12-12T22:50:24.417Z,55.76
2018-12-12T22:52:53.611Z,55.49
2018-12-12T22:55:22.441Z,55.72
2018-12-12T22:57:51.655Z,56.25
2018-12-12T23:00:26.062Z,55.33
2018-12-12T23:02:55.101Z,55.95
2018-12-12T23:05:24.302Z,55.64
2018-12-12T23:07:53.081Z,55.89
2018-12-12T23:10:21.901Z,55.22
2018-12-12T23:12:50.741Z,54.90
2018-12-12T23:15:19.546Z,56.08
2018-12-12T23:17:48.364Z,55.61
2018-12-12T23:20:17.173Z,54.82
2018-12-12T23:22:46.245Z,55.17
2018-12-12T23:25:15.073Z,55.15
2018-12-12T23:27:43.905Z,54.95
2018-12-12T23:30:12.722Z,55.01
2018-12-12T23:32:41.545Z,55.82
2018-12-12T23:35:10.601Z,55.07
2018-12-12T23:37:39.405Z,55.69
2018-12-12T23:40:08.653Z,55.79
2018-12-12T23:42:37.475Z,55.06
2018-12-12T23:45:06.909Z,55.66
2018-12-12T23:47:35.718Z,55.74
2018-12-12T23:50:05.467Z,55.96
2018-12-12T23:52:34.849Z,55.49
2018-12-12T23:55:04.058Z,55.79
2018-12-12T23:57:32.848Z,55.52
